Chennai, India

1:50 AM IST on December 28, 2014 (GMT +0530)
Chennai International | Change Station
CLOSE
Current Station
Airport
Location: Chennai,
Elevation: 52 ft
Nearby Weather Stations

Elev 52 ft 12.99 °N, 80.18 °E | Updated 40 minutes ago

Mostly Cloudy
Mostly Cloudy
75 °F
Feels Like 75 °F
N
0
Wind Variable Wind from North

Today
High -- | Low -- °F
--% Chance of Precip.
Yesterday
High -- | Low -- °F
Precip. -- in
6:29 AM 5:51 PM
Waxing Crescent, 39% visible
Pressure 29.86 in
Visibility 1.6 miles
Clouds Scattered Clouds 1800 ft
Mostly Cloudy 10000 ft
Dew Point 72 °F
Humidity 89%
Rainfall 0.00 in
Snow Depth Not available.
UV 0 out of 12
Pollen Not available.
Air Quality Not available.
Flu Activity Not available.
METAR VOMM 271940Z 00000KT 2500 BR SCT018 BKN100 24/22 Q1011 NOSIG

More Conditions Fewer Conditions

Pressure 29.86 in
Visibility 1.6 miles
Clouds Scattered Clouds 1800 ft
Mostly Cloudy 10000 ft
Dew Point 72 °F
Humidity 89%
Rainfall 0.00 in
Snow Depth Not available.
UV 0 out of 12
Pollen Not available.
Air Quality Not available.
Flu Activity Not available.
METAR VOMM 271940Z 00000KT 2500 BR SCT018 BKN100 24/22 Q1011 NOSIG

More Conditions Fewer Conditions

10-Day Weather Forecast

Almanac

Astronomy

Dec. 28, 2014 Rise Set
Actual Time
Civil Twilight
Nautical Twilight
Astronomical Twilight
Moon
Length of Visible Light
Length of Day
Tomorrow will be .
, % of the Moon is Illuminated

Today's Extremes

Country Highs Country Lows

Community

WunderPhotos

Upload Photos

1,781,040 photos uploaded!

WunderBlogs® & News

Nearby

Air Quality

  Air Quality AQ Index Pollutant
Not available.

Snow Depth

Station Depth Elevation

Earthquake Activity

City Distance Mag. Time & Date
Minimum magnitude displayed is 2.5.

Coastal Water Temperatures

Place Temperature

Nearby Weather Stations